sensor_id;sensor_type;location;lat;lon;timestamp;pressure;altitude;pressure_sealevel;temperature;humidity
47260;BME280;32999;52.412;4.890;2023-03-14T00:03:23;98765.69;;;11.24;100.00
47260;BME280;32999;52.412;4.890;2023-03-14T00:08:25;98769.16;;;11.08;100.00
47260;BME280;32999;52.412;4.890;2023-03-14T00:13:28;98763.63;;;10.98;100.00
47260;BME280;32999;52.412;4.890;2023-03-14T00:18:30;98728.47;;;10.61;100.00
47260;BME280;32999;52.412;4.890;2023-03-14T00:23:34;98768.47;;;10.84;100.00
47260;BME280;32999;52.412;4.890;2023-03-14T00:28:37;98765.34;;;10.75;100.00
47260;BME280;32999;52.412;4.890;2023-03-14T00:33:39;98759.22;;;10.91;100.00
47260;BME280;32999;52.412;4.890;2023-03-14T00:38:42;98788.72;;;10.97;100.00
47260;BME280;32999;52.412;4.890;2023-03-14T00:43:46;98784.06;;;11.04;100.00
47260;BME280;32999;52.412;4.890;2023-03-14T00:48:48;98762.59;;;11.15;100.00
47260;BME280;32999;52.412;4.890;2023-03-14T00:53:50;98755.16;;;11.17;100.00
47260;BME280;32999;52.412;4.890;2023-03-14T00:58:56;98761.41;;;11.23;100.00
47260;BME280;32999;52.412;4.890;2023-03-14T01:03:58;98742.59;;;11.18;100.00
47260;BME280;32999;52.412;4.890;2023-03-14T01:09:03;98769.50;;;11.28;100.00
47260;BME280;32999;52.412;4.890;2023-03-14T01:14:10;98772.56;;;11.03;100.00
47260;BME280;32999;52.412;4.890;2023-03-14T01:19:12;98782.09;;;10.99;100.00
47260;BME280;32999;52.412;4.890;2023-03-14T01:24:13;98790.69;;;11.01;100.00
47260;BME280;32999;52.412;4.890;2023-03-14T01:29:17;98767.81;;;10.94;100.00
47260;BME280;32999;52.412;4.890;2023-03-14T01:34:19;98768.13;;;10.80;100.00
47260;BME280;32999;52.412;4.890;2023-03-14T01:39:21;98703.38;;;10.21;100.00
47260;BME280;32999;52.412;4.890;2023-03-14T01:44:24;98734.13;;;10.36;100.00
47260;BME280;32999;52.412;4.890;2023-03-14T01:49:27;98753.25;;;10.44;100.00
47260;BME280;32999;52.412;4.890;2023-03-14T01:54:32;98767.63;;;10.55;100.00
47260;BME280;32999;52.412;4.890;2023-03-14T01:59:37;98710.69;;;10.38;100.00
47260;BME280;32999;52.412;4.890;2023-03-14T02:04:39;98758.41;;;10.91;100.00
47260;BME280;32999;52.412;4.890;2023-03-14T02:09:42;98715.25;;;10.54;100.00
47260;BME280;32999;52.412;4.890;2023-03-14T02:14:45;98750.56;;;10.84;100.00
47260;BME280;32999;52.412;4.890;2023-03-14T02:19:57;98746.91;;;10.90;100.00
47260;BME280;32999;52.412;4.890;2023-03-14T02:25:08;98739.31;;;10.82;100.00
47260;BME280;32999;52.412;4.890;2023-03-14T02:30:16;98741.34;;;10.92;100.00
47260;BME280;32999;52.412;4.890;2023-03-14T02:35:21;98721.66;;;10.81;100.00
47260;BME280;32999;52.412;4.890;2023-03-14T02:40:24;98728.31;;;10.96;100.00
47260;BME280;32999;52.412;4.890;2023-03-14T02:45:35;98678.03;;;10.64;100.00
47260;BME280;32999;52.412;4.890;2023-03-14T02:50:38;98724.00;;;10.95;100.00
47260;BME280;32999;52.412;4.890;2023-03-14T02:55:45;98703.44;;;10.95;100.00
47260;BME280;32999;52.412;4.890;2023-03-14T03:00:48;98704.19;;;11.07;100.00
47260;BME280;32999;52.412;4.890;2023-03-14T03:05:52;98693.25;;;11.25;100.00
47260;BME280;32999;52.412;4.890;2023-03-14T03:10:54;98693.97;;;11.21;100.00
47260;BME280;32999;52.412;4.890;2023-03-14T03:15:58;98697.88;;;11.30;100.00
47260;BME280;32999;52.412;4.890;2023-03-14T03:21:03;98705.72;;;11.20;100.00
47260;BME280;32999;52.412;4.890;2023-03-14T03:26:06;98691.56;;;11.36;100.00
47260;BME280;32999;52.412;4.890;2023-03-14T03:31:10;98683.94;;;11.28;100.00
47260;BME280;32999;52.412;4.890;2023-03-14T03:36:12;98708.41;;;11.20;100.00
47260;BME280;32999;52.412;4.890;2023-03-14T03:41:14;98686.13;;;11.14;100.00
47260;BME280;32999;52.412;4.890;2023-03-14T03:46:17;98699.81;;;11.01;100.00
47260;BME280;32999;52.412;4.890;2023-03-14T03:51:19;98704.34;;;11.17;100.00
47260;BME280;32999;52.412;4.890;2023-03-14T03:56:21;98686.63;;;11.11;100.00
47260;BME280;32999;52.412;4.890;2023-03-14T04:01:24;98687.19;;;11.13;100.00
47260;BME280;32999;52.412;4.890;2023-03-14T04:06:26;98707.09;;;11.06;100.00
47260;BME280;32999;52.412;4.890;2023-03-14T04:11:28;98712.13;;;11.02;100.00
47260;BME280;32999;52.412;4.890;2023-03-14T04:16:31;98713.16;;;10.84;100.00
47260;BME280;32999;52.412;4.890;2023-03-14T04:21:33;98725.75;;;10.72;100.00
47260;BME280;32999;52.412;4.890;2023-03-14T04:26:35;98692.28;;;10.41;100.00
47260;BME280;32999;52.412;4.890;2023-03-14T04:31:38;98685.50;;;10.22;100.00
47260;BME280;32999;52.412;4.890;2023-03-14T04:36:40;98734.13;;;10.36;100.00
47260;BME280;32999;52.412;4.890;2023-03-14T04:41:42;98744.59;;;10.26;100.00
47260;BME280;32999;52.412;4.890;2023-03-14T04:46:45;98747.16;;;9.97;100.00
47260;BME280;32999;52.412;4.890;2023-03-14T04:51:47;98726.41;;;9.76;100.00
47260;BME280;32999;52.412;4.890;2023-03-14T04:56:51;98726.97;;;10.01;100.00
47260;BME280;32999;52.412;4.890;2023-03-14T05:01:54;98745.97;;;9.93;100.00
47260;BME280;32999;52.412;4.890;2023-03-14T05:06:56;98729.03;;;9.99;100.00
47260;BME280;32999;52.412;4.890;2023-03-14T05:11:58;98750.28;;;9.94;100.00
47260;BME280;32999;52.412;4.890;2023-03-14T05:17:01;98743.53;;;9.92;100.00
47260;BME280;32999;52.412;4.890;2023-03-14T05:22:04;98765.25;;;9.95;100.00
47260;BME280;32999;52.412;4.890;2023-03-14T05:27:05;98759.91;;;9.95;100.00
47260;BME280;32999;52.412;4.890;2023-03-14T05:32:08;98668.66;;;9.35;100.00
47260;BME280;32999;52.412;4.890;2023-03-14T05:37:10;98802.59;;;9.60;100.00
47260;BME280;32999;52.412;4.890;2023-03-14T05:42:12;98762.47;;;9.02;100.00
47260;BME280;32999;52.412;4.890;2023-03-14T05:47:15;98847.41;;;9.10;100.00
47260;BME280;32999;52.412;4.890;2023-03-14T05:52:17;98840.00;;;9.12;100.00
47260;BME280;32999;52.412;4.890;2023-03-14T05:57:18;98758.72;;;8.06;100.00
47260;BME280;32999;52.412;4.890;2023-03-14T06:02:22;98862.97;;;9.13;100.00
47260;BME280;32999;52.412;4.890;2023-03-14T06:07:24;98849.84;;;8.63;100.00
47260;BME280;32999;52.412;4.890;2023-03-14T06:12:25;98893.31;;;8.94;100.00
47260;BME280;32999;52.412;4.890;2023-03-14T06:17:39;98770.38;;;7.87;100.00
47260;BME280;32999;52.412;4.890;2023-03-14T06:22:43;98927.06;;;8.63;100.00
47260;BME280;32999;52.412;4.890;2023-03-14T06:27:44;98898.72;;;8.50;100.00
47260;BME280;32999;52.412;4.890;2023-03-14T06:32:48;98951.16;;;8.68;100.00
47260;BME280;32999;52.412;4.890;2023-03-14T06:37:49;98928.06;;;8.44;100.00
47260;BME280;32999;52.412;4.890;2023-03-14T06:42:51;98980.53;;;8.62;100.00
47260;BME280;32999;52.412;4.890;2023-03-14T06:47:54;98974.81;;;8.40;100.00
47260;BME280;32999;52.412;4.890;2023-03-14T06:52:56;98964.69;;;8.17;100.00
47260;BME280;32999;52.412;4.890;2023-03-14T06:57:57;98949.97;;;7.90;100.00
47260;BME280;32999;52.412;4.890;2023-03-14T07:03:00;98948.47;;;8.00;100.00
47260;BME280;32999;52.412;4.890;2023-03-14T07:08:02;98942.22;;;7.88;100.00
47260;BME280;32999;52.412;4.890;2023-03-14T07:13:04;99044.44;;;8.37;100.00
47260;BME280;32999;52.412;4.890;2023-03-14T07:18:08;99118.06;;;7.47;100.00
47260;BME280;32999;52.412;4.890;2023-03-14T07:23:09;99157.94;;;6.41;100.00
47260;BME280;32999;52.412;4.890;2023-03-14T07:28:11;99081.78;;;5.27;100.00
47260;BME280;32999;52.412;4.890;2023-03-14T07:33:14;99067.41;;;5.08;100.00
47260;BME280;32999;52.412;4.890;2023-03-14T07:38:16;99241.31;;;6.19;100.00
47260;BME280;32999;52.412;4.890;2023-03-14T07:43:18;99206.19;;;5.41;100.00
47260;BME280;32999;52.412;4.890;2023-03-14T07:48:21;99276.59;;;5.85;100.00
47260;BME280;32999;52.412;4.890;2023-03-14T07:53:24;99290.97;;;5.97;100.00
47260;BME280;32999;52.412;4.890;2023-03-14T07:58:28;99223.72;;;5.42;100.00
47260;BME280;32999;52.412;4.890;2023-03-14T08:03:31;99213.97;;;5.00;100.00
47260;BME280;32999;52.412;4.890;2023-03-14T08:08:33;99359.53;;;6.00;100.00
47260;BME280;32999;52.412;4.890;2023-03-14T08:13:36;99363.00;;;6.29;100.00
47260;BME280;32999;52.412;4.890;2023-03-14T08:18:39;99269.16;;;5.46;100.00
47260;BME280;32999;52.412;4.890;2023-03-14T08:23:41;99267.50;;;5.66;100.00
47260;BME280;32999;52.412;4.890;2023-03-14T08:28:42;99354.94;;;6.50;100.00
47260;BME280;32999;52.412;4.890;2023-03-14T08:33:46;99435.63;;;6.97;100.00
47260;BME280;32999;52.412;4.890;2023-03-14T08:38:47;99367.19;;;6.51;100.00
47260;BME280;32999;52.412;4.890;2023-03-14T08:43:49;99448.22;;;6.81;100.00
47260;BME280;32999;52.412;4.890;2023-03-14T08:48:52;99403.03;;;6.34;100.00
47260;BME280;32999;52.412;4.890;2023-03-14T08:53:54;99503.34;;;7.07;100.00
47260;BME280;32999;52.412;4.890;2023-03-14T08:58:56;99520.69;;;7.03;100.00
47260;BME280;32999;52.412;4.890;2023-03-14T09:03:59;99502.34;;;6.80;100.00
47260;BME280;32999;52.412;4.890;2023-03-14T09:09:01;99518.59;;;6.92;100.00
47260;BME280;32999;52.412;4.890;2023-03-14T09:14:03;99602.72;;;7.20;100.00
47260;BME280;32999;52.412;4.890;2023-03-14T09:19:07;99521.81;;;6.32;100.00
47260;BME280;32999;52.412;4.890;2023-03-14T09:24:09;99539.19;;;5.77;100.00
47260;BME280;32999;52.412;4.890;2023-03-14T09:29:11;99686.97;;;6.19;100.00
47260;BME280;32999;52.412;4.890;2023-03-14T09:34:14;99554.13;;;4.75;100.00
47260;BME280;32999;52.412;4.890;2023-03-14T09:39:16;99671.72;;;5.77;100.00
47260;BME280;32999;52.412;4.890;2023-03-14T09:44:20;99711.22;;;6.52;100.00
47260;BME280;32999;52.412;4.890;2023-03-14T09:49:27;99638.19;;;6.20;100.00
47260;BME280;32999;52.412;4.890;2023-03-14T09:54:32;99699.56;;;6.68;100.00
47260;BME280;32999;52.412;4.890;2023-03-14T09:59:36;99664.19;;;6.25;100.00
47260;BME280;32999;52.412;4.890;2023-03-14T10:04:42;99778.72;;;6.43;100.00
47260;BME280;32999;52.412;4.890;2023-03-14T10:09:49;99714.50;;;5.74;100.00
47260;BME280;32999;52.412;4.890;2023-03-14T10:14:52;99748.44;;;6.37;100.00
47260;BME280;32999;52.412;4.890;2023-03-14T10:19:57;99744.81;;;6.45;100.00
47260;BME280;32999;52.412;4.890;2023-03-14T10:25:02;99764.72;;;6.34;100.00
47260;BME280;32999;52.412;4.890;2023-03-14T10:30:06;99836.38;;;9.08;100.00
47260;BME280;32999;52.412;4.890;2023-03-14T10:35:20;99849.53;;;11.00;100.00
47260;BME280;32999;52.412;4.890;2023-03-14T10:40:26;99875.59;;;11.11;100.00
47260;BME280;32999;52.412;4.890;2023-03-14T10:45:36;99881.81;;;11.68;100.00
47260;BME280;32999;52.412;4.890;2023-03-14T10:56:11;99838.28;;;12.47;100.00
47260;BME280;32999;52.412;4.890;2023-03-14T11:01:29;99954.63;;;12.82;100.00
47260;BME280;32999;52.412;4.890;2023-03-14T11:07:01;99937.88;;;13.83;99.98
47260;BME280;32999;52.412;4.890;2023-03-14T11:13:27;100000.44;;;14.14;83.97
47260;BME280;32999;52.412;4.890;2023-03-14T11:43:01;100041.72;;;15.71;60.36
47260;BME280;32999;52.412;4.890;2023-03-14T11:49:56;100053.28;;;15.20;58.30
47260;BME280;32999;52.412;4.890;2023-03-14T11:54:57;100097.06;;;15.27;62.11
47260;BME280;32999;52.412;4.890;2023-03-14T12:12:10;100123.06;;;14.56;58.02
47260;BME280;32999;52.412;4.890;2023-03-14T12:17:41;100112.84;;;15.23;56.12
47260;BME280;32999;52.412;4.890;2023-03-14T12:23:13;100109.50;;;14.51;52.42
47260;BME280;32999;52.412;4.890;2023-03-14T12:28:31;100132.56;;;13.13;52.33
47260;BME280;32999;52.412;4.890;2023-03-14T12:33:33;100050.94;;;13.27;55.00
47260;BME280;32999;52.412;4.890;2023-03-14T12:50:31;100231.66;;;12.38;61.19
47260;BME280;32999;52.412;4.890;2023-03-14T12:55:57;100270.28;;;12.17;67.06
47260;BME280;32999;52.412;4.890;2023-03-14T13:01:16;100248.97;;;11.51;67.30
47260;BME280;32999;52.412;4.890;2023-03-14T13:06:50;100280.19;;;10.98;70.87
47260;BME280;32999;52.412;4.890;2023-03-14T13:12:03;100298.19;;;10.70;75.13
47260;BME280;32999;52.412;4.890;2023-03-14T13:17:10;100291.81;;;10.57;72.07
47260;BME280;32999;52.412;4.890;2023-03-14T13:22:20;100303.19;;;10.79;67.29
47260;BME280;32999;52.412;4.890;2023-03-14T13:27:22;100300.94;;;10.89;61.45
47260;BME280;32999;52.412;4.890;2023-03-14T13:32:27;100215.97;;;10.11;60.32
47260;BME280;32999;52.412;4.890;2023-03-14T13:37:30;100342.03;;;10.75;60.21
47260;BME280;32999;52.412;4.890;2023-03-14T13:42:32;100324.34;;;10.74;56.75
47260;BME280;32999;52.412;4.890;2023-03-14T13:47:38;100363.34;;;10.62;58.86
47260;BME280;32999;52.412;4.890;2023-03-14T13:52:42;100327.81;;;9.99;57.59
47260;BME280;32999;52.412;4.890;2023-03-14T13:57:46;100419.44;;;10.55;60.97
47260;BME280;32999;52.412;4.890;2023-03-14T14:02:48;100278.94;;;9.71;62.10
47260;BME280;32999;52.412;4.890;2023-03-14T14:07:51;100407.25;;;10.46;60.68
47260;BME280;32999;52.412;4.890;2023-03-14T14:12:56;100410.09;;;10.38;58.57
47260;BME280;32999;52.412;4.890;2023-03-14T14:18:03;100366.13;;;9.21;63.36
47260;BME280;32999;52.412;4.890;2023-03-14T14:23:10;100458.47;;;9.43;61.79
47260;BME280;32999;52.412;4.890;2023-03-14T14:28:20;100473.34;;;9.52;67.01
47260;BME280;32999;52.412;4.890;2023-03-14T14:33:23;100396.88;;;9.02;69.90
47260;BME280;32999;52.412;4.890;2023-03-14T14:38:26;100474.66;;;9.42;66.05
47260;BME280;32999;52.412;4.890;2023-03-14T14:43:30;100443.94;;;8.95;57.49
47260;BME280;32999;52.412;4.890;2023-03-14T14:48:37;100387.25;;;8.28;64.16
47260;BME280;32999;52.412;4.890;2023-03-14T14:53:42;100463.81;;;8.63;67.71
47260;BME280;32999;52.412;4.890;2023-03-14T14:58:45;100532.00;;;8.87;70.16
47260;BME280;32999;52.412;4.890;2023-03-14T15:03:50;100467.31;;;8.03;69.83
47260;BME280;32999;52.412;4.890;2023-03-14T15:08:55;100480.50;;;7.74;73.38
47260;BME280;32999;52.412;4.890;2023-03-14T15:14:08;100516.00;;;8.35;76.51
47260;BME280;32999;52.412;4.890;2023-03-14T15:19:41;100559.63;;;8.71;71.48
47260;BME280;32999;52.412;4.890;2023-03-14T15:24:43;100538.00;;;8.66;76.68
47260;BME280;32999;52.412;4.890;2023-03-14T15:29:45;100491.09;;;8.05;85.76
47260;BME280;32999;52.412;4.890;2023-03-14T15:34:48;100608.72;;;8.54;91.26
47260;BME280;32999;52.412;4.890;2023-03-14T15:39:49;100558.69;;;8.18;85.23
47260;BME280;32999;52.412;4.890;2023-03-14T15:44:51;100527.19;;;7.54;75.43
47260;BME280;32999;52.412;4.890;2023-03-14T15:49:54;100612.94;;;8.17;77.34
47260;BME280;32999;52.412;4.890;2023-03-14T15:54:56;100644.50;;;8.29;81.93
47260;BME280;32999;52.412;4.890;2023-03-14T15:59:57;100559.72;;;7.64;84.18
47260;BME280;32999;52.412;4.890;2023-03-14T16:05:01;100637.97;;;8.08;92.55
47260;BME280;32999;52.412;4.890;2023-03-14T16:10:03;100645.16;;;8.00;93.69
47260;BME280;32999;52.412;4.890;2023-03-14T16:15:07;100654.47;;;7.96;93.46
47260;BME280;32999;52.412;4.890;2023-03-14T16:20:11;100605.88;;;7.71;94.36
47260;BME280;32999;52.412;4.890;2023-03-14T16:25:13;100671.03;;;7.83;93.49
47260;BME280;32999;52.412;4.890;2023-03-14T16:30:15;100677.09;;;7.61;94.27
47260;BME280;32999;52.412;4.890;2023-03-14T16:35:18;100664.19;;;7.33;93.36
47260;BME280;32999;52.412;4.890;2023-03-14T16:40:20;100604.97;;;6.76;91.80
47260;BME280;32999;52.412;4.890;2023-03-14T16:45:27;100730.66;;;7.41;87.45
47260;BME280;32999;52.412;4.890;2023-03-14T16:50:30;100709.72;;;7.38;92.76
47260;BME280;32999;52.412;4.890;2023-03-14T16:55:32;100625.06;;;6.70;99.78
47260;BME280;32999;52.412;4.890;2023-03-14T17:00:34;100739.63;;;7.24;100.00
47260;BME280;32999;52.412;4.890;2023-03-14T17:05:37;100702.44;;;6.92;100.00
47260;BME280;32999;52.412;4.890;2023-03-14T17:10:38;100744.63;;;7.03;100.00
47260;BME280;32999;52.412;4.890;2023-03-14T17:15:44;100767.69;;;7.02;100.00
47260;BME280;32999;52.412;4.890;2023-03-14T17:20:49;100719.47;;;6.40;98.87
47260;BME280;32999;52.412;4.890;2023-03-14T17:25:51;100781.78;;;6.78;100.00
47260;BME280;32999;52.412;4.890;2023-03-14T17:31:01;100767.16;;;6.66;98.22
47260;BME280;32999;52.412;4.890;2023-03-14T17:36:05;100807.47;;;6.62;90.94
47260;BME280;32999;52.412;4.890;2023-03-14T17:41:08;100713.19;;;5.91;91.87
47260;BME280;32999;52.412;4.890;2023-03-14T17:46:12;100825.47;;;6.34;88.83
47260;BME280;32999;52.412;4.890;2023-03-14T17:51:17;100812.88;;;6.36;89.17
47260;BME280;32999;52.412;4.890;2023-03-14T17:56:19;100786.13;;;5.95;94.17
47260;BME280;32999;52.412;4.890;2023-03-14T18:01:20;100748.03;;;5.78;95.26
47260;BME280;32999;52.412;4.890;2023-03-14T18:06:23;100851.38;;;6.48;98.63
47260;BME280;32999;52.412;4.890;2023-03-14T18:11:29;100726.47;;;5.73;100.00
47260;BME280;32999;52.412;4.890;2023-03-14T18:16:31;100840.75;;;6.40;100.00
47260;BME280;32999;52.412;4.890;2023-03-14T18:21:34;100830.13;;;6.40;100.00
47260;BME280;32999;52.412;4.890;2023-03-14T18:26:35;100868.41;;;6.71;100.00
47260;BME280;32999;52.412;4.890;2023-03-14T18:31:37;100829.06;;;6.25;100.00
47260;BME280;32999;52.412;4.890;2023-03-14T18:36:40;100885.06;;;6.47;100.00
47260;BME280;32999;52.412;4.890;2023-03-14T18:41:42;100889.91;;;6.52;100.00
47260;BME280;32999;52.412;4.890;2023-03-14T18:46:44;100873.56;;;6.65;100.00
47260;BME280;32999;52.412;4.890;2023-03-14T18:51:47;100806.50;;;5.95;100.00
47260;BME280;32999;52.412;4.890;2023-03-14T18:56:50;100884.16;;;6.31;100.00
47260;BME280;32999;52.412;4.890;2023-03-14T19:01:51;100870.84;;;6.23;100.00
47260;BME280;32999;52.412;4.890;2023-03-14T19:06:55;100842.63;;;6.22;100.00
47260;BME280;32999;52.412;4.890;2023-03-14T19:11:56;100820.34;;;6.06;100.00
47260;BME280;32999;52.412;4.890;2023-03-14T19:16:58;100887.06;;;6.20;100.00
47260;BME280;32999;52.412;4.890;2023-03-14T19:22:01;100852.41;;;6.21;100.00
47260;BME280;32999;52.412;4.890;2023-03-14T19:27:03;100793.34;;;5.85;100.00
47260;BME280;32999;52.412;4.890;2023-03-14T19:32:04;100775.84;;;5.74;100.00
47260;BME280;32999;52.412;4.890;2023-03-14T19:37:07;100811.91;;;5.85;100.00
47260;BME280;32999;52.412;4.890;2023-03-14T19:42:09;100899.56;;;6.27;100.00
47260;BME280;32999;52.412;4.890;2023-03-14T19:47:11;100760.78;;;5.49;100.00
47260;BME280;32999;52.412;4.890;2023-03-14T19:52:14;100908.09;;;6.39;100.00
47260;BME280;32999;52.412;4.890;2023-03-14T19:57:16;100905.09;;;6.34;100.00
47260;BME280;32999;52.412;4.890;2023-03-14T20:02:18;100867.19;;;5.98;100.00
47260;BME280;32999;52.412;4.890;2023-03-14T20:07:21;100909.22;;;6.62;100.00
47260;BME280;32999;52.412;4.890;2023-03-14T20:12:23;100838.28;;;6.12;100.00
47260;BME280;32999;52.412;4.890;2023-03-14T20:17:24;100929.44;;;6.03;100.00
47260;BME280;32999;52.412;4.890;2023-03-14T20:22:28;100823.16;;;5.35;100.00
47260;BME280;32999;52.412;4.890;2023-03-14T20:27:35;100896.47;;;5.70;100.00
47260;BME280;32999;52.412;4.890;2023-03-14T20:32:38;100934.66;;;5.95;100.00
47260;BME280;32999;52.412;4.890;2023-03-14T20:37:41;100888.22;;;5.73;100.00
47260;BME280;32999;52.412;4.890;2023-03-14T20:42:42;100852.03;;;5.46;100.00
47260;BME280;32999;52.412;4.890;2023-03-14T20:47:44;100904.03;;;5.83;100.00
47260;BME280;32999;52.412;4.890;2023-03-14T20:52:47;100935.50;;;5.78;100.00
47260;BME280;32999;52.412;4.890;2023-03-14T20:57:49;100893.22;;;5.23;100.00
47260;BME280;32999;52.412;4.890;2023-03-14T21:02:51;100977.47;;;5.65;100.00
47260;BME280;32999;52.412;4.890;2023-03-14T21:07:54;100937.38;;;5.50;100.00
47260;BME280;32999;52.412;4.890;2023-03-14T21:12:56;100977.75;;;5.89;100.00
47260;BME280;32999;52.412;4.890;2023-03-14T21:17:58;100986.25;;;5.83;100.00
47260;BME280;32999;52.412;4.890;2023-03-14T21:23:06;100970.22;;;5.67;100.00
47260;BME280;32999;52.412;4.890;2023-03-14T21:28:07;101021.63;;;5.74;100.00
47260;BME280;32999;52.412;4.890;2023-03-14T21:33:09;100950.53;;;4.42;100.00
47260;BME280;32999;52.412;4.890;2023-03-14T21:38:12;101045.09;;;4.21;100.00
47260;BME280;32999;52.412;4.890;2023-03-14T21:43:14;100976.22;;;3.55;100.00
47260;BME280;32999;52.412;4.890;2023-03-14T21:48:19;101074.19;;;4.21;100.00
47260;BME280;32999;52.412;4.890;2023-03-14T21:53:22;101077.00;;;4.38;100.00
47260;BME280;32999;52.412;4.890;2023-03-14T21:58:29;101054.72;;;4.12;100.00
47260;BME280;32999;52.412;4.890;2023-03-14T22:03:31;101007.81;;;3.95;100.00
47260;BME280;32999;52.412;4.890;2023-03-14T22:08:35;101103.16;;;4.32;100.00
47260;BME280;32999;52.412;4.890;2023-03-14T22:13:37;101098.16;;;4.29;100.00
47260;BME280;32999;52.412;4.890;2023-03-14T22:18:38;101109.84;;;4.36;100.00
47260;BME280;32999;52.412;4.890;2023-03-14T22:23:41;101035.78;;;3.97;100.00
47260;BME280;32999;52.412;4.890;2023-03-14T22:28:43;101072.81;;;3.88;100.00
47260;BME280;32999;52.412;4.890;2023-03-14T22:33:45;101025.16;;;3.49;100.00
47260;BME280;32999;52.412;4.890;2023-03-14T22:38:48;101140.16;;;3.93;100.00
47260;BME280;32999;52.412;4.890;2023-03-14T22:43:49;101123.72;;;3.99;100.00
47260;BME280;32999;52.412;4.890;2023-03-14T22:48:51;101123.59;;;3.91;100.00
47260;BME280;32999;52.412;4.890;2023-03-14T22:53:54;101035.38;;;3.23;100.00
47260;BME280;32999;52.412;4.890;2023-03-14T22:58:56;101136.91;;;3.80;100.00
47260;BME280;32999;52.412;4.890;2023-03-14T23:03:58;101062.94;;;3.30;100.00
47260;BME280;32999;52.412;4.890;2023-03-14T23:09:01;101144.19;;;3.97;100.00
47260;BME280;32999;52.412;4.890;2023-03-14T23:14:03;101138.94;;;4.17;100.00
47260;BME280;32999;52.412;4.890;2023-03-14T23:19:05;101128.22;;;4.18;100.00
47260;BME280;32999;52.412;4.890;2023-03-14T23:24:10;101139.19;;;4.04;100.00
47260;BME280;32999;52.412;4.890;2023-03-14T23:29:12;101147.72;;;4.17;100.00
47260;BME280;32999;52.412;4.890;2023-03-14T23:34:14;101119.56;;;3.87;100.00
47260;BME280;32999;52.412;4.890;2023-03-14T23:39:17;101083.56;;;3.46;100.00
47260;BME280;32999;52.412;4.890;2023-03-14T23:44:19;101130.34;;;3.74;100.00
47260;BME280;32999;52.412;4.890;2023-03-14T23:49:22;101168.56;;;3.91;100.00
47260;BME280;32999;52.412;4.890;2023-03-14T23:54:25;101146.56;;;3.91;100.00
47260;BME280;32999;52.412;4.890;2023-03-14T23:59:27;101156.31;;;3.90;100.00
